createdAt,value
2018-02-13T00:00:42.328Z,-0.64
2018-02-13T00:03:09.873Z,-0.69
2018-02-13T00:05:37.405Z,-0.70
2018-02-13T00:08:04.931Z,-0.70
2018-02-13T00:10:32.473Z,-0.73
2018-02-13T00:13:00.026Z,-0.71
2018-02-13T00:15:27.592Z,-0.70
2018-02-13T00:17:55.120Z,-0.67
2018-02-13T00:20:22.629Z,-0.67
2018-02-13T00:22:50.872Z,-0.68
2018-02-13T00:25:18.385Z,-0.68
2018-02-13T00:27:45.952Z,-0.67
2018-02-13T00:30:13.461Z,-0.63
2018-02-13T00:32:40.993Z,-0.59
2018-02-13T00:35:08.562Z,-0.48
2018-02-13T00:37:36.069Z,-0.45
2018-02-13T00:40:03.579Z,-0.47
2018-02-13T00:42:31.141Z,-0.49
2018-02-13T00:44:58.681Z,-0.54
2018-02-13T00:47:26.191Z,-0.54
2018-02-13T00:49:53.745Z,-0.53
2018-02-13T00:52:21.281Z,-0.56
2018-02-13T00:54:48.798Z,-0.53
2018-02-13T00:57:16.325Z,-0.51
2018-02-13T00:59:43.834Z,-0.55
2018-02-13T01:02:11.402Z,-0.62
2018-02-13T01:04:38.923Z,-0.65
2018-02-13T01:07:06.458Z,-0.64
2018-02-13T01:09:34.099Z,-0.65
2018-02-13T01:12:01.647Z,-0.63
2018-02-13T01:14:29.175Z,-0.58
2018-02-13T01:16:56.788Z,-0.56
2018-02-13T01:19:24.323Z,-0.52
2018-02-13T01:21:51.862Z,-0.47
2018-02-13T01:24:19.545Z,-0.05
2018-02-13T01:26:47.122Z,-0.02
2018-02-13T01:29:14.637Z,-0.14
2018-02-13T01:31:42.191Z,-0.24
2018-02-13T01:34:09.719Z,-0.29
2018-02-13T01:36:37.359Z,-0.37
2018-02-13T01:39:04.884Z,-0.39
2018-02-13T01:41:32.391Z,-0.37
2018-02-13T01:43:59.902Z,-0.34
2018-02-13T01:46:27.479Z,-0.32
2018-02-13T01:48:55.015Z,-0.31
2018-02-13T01:51:22.516Z,-0.26
2018-02-13T01:53:50.032Z,-0.20
2018-02-13T01:56:17.629Z,-0.16
2018-02-13T01:58:45.170Z,-0.10
2018-02-13T02:01:12.734Z,-0.02
2018-02-13T02:03:40.263Z,0.04
2018-02-13T02:06:07.803Z,0.07
2018-02-13T02:08:35.326Z,0.06
2018-02-13T02:11:02.987Z,0.04
2018-02-13T02:13:30.516Z,0.04
2018-02-13T02:15:58.032Z,0.07
2018-02-13T02:18:25.589Z,0.06
2018-02-13T02:20:53.109Z,0.05
2018-02-13T02:23:20.613Z,0.02
2018-02-13T02:25:48.129Z,0.01
2018-02-13T02:28:15.793Z,0.00
2018-02-13T02:30:43.308Z,0.00
2018-02-13T02:33:10.894Z,0.02
2018-02-13T02:35:38.421Z,0.01
2018-02-13T02:38:05.934Z,0.02
2018-02-13T02:40:33.481Z,-0.03
2018-02-13T02:43:05.972Z,-0.03
2018-02-13T02:45:33.519Z,-0.02
2018-02-13T02:48:01.042Z,0.02
2018-02-13T02:50:28.577Z,-0.01
2018-02-13T02:52:56.184Z,-0.03
2018-02-13T02:55:23.846Z,-0.06
2018-02-13T02:57:51.348Z,-0.03
2018-02-13T03:00:18.877Z,0.01
2018-02-13T03:02:46.393Z,0.06
2018-02-13T03:05:13.904Z,0.02
2018-02-13T03:07:41.457Z,-0.03
2018-02-13T03:10:08.973Z,-0.08
2018-02-13T03:12:36.562Z,-0.12
2018-02-13T03:15:04.108Z,-0.18
2018-02-13T03:17:31.695Z,-0.28
2018-02-13T03:19:59.238Z,-0.39
2018-02-13T03:22:26.766Z,-0.45
2018-02-13T03:24:54.314Z,-0.48
2018-02-13T03:27:22.037Z,-0.54
2018-02-13T03:29:49.592Z,-0.57
2018-02-13T03:32:17.132Z,-0.60
2018-02-13T03:34:44.672Z,-0.65
2018-02-13T03:37:12.275Z,-0.70
2018-02-13T03:39:39.808Z,-0.73
2018-02-13T03:42:07.353Z,-0.75
2018-02-13T03:44:34.866Z,-0.77
2018-02-13T03:47:02.409Z,-0.81
2018-02-13T03:49:29.950Z,-0.83
2018-02-13T03:51:57.452Z,-0.88
2018-02-13T03:54:24.958Z,-0.93
2018-02-13T03:56:52.531Z,-0.92
2018-02-13T03:59:20.065Z,-0.93
2018-02-13T04:01:47.882Z,-0.93
2018-02-13T04:04:15.426Z,-0.92
2018-02-13T04:06:42.937Z,-0.94
2018-02-13T04:09:10.471Z,-0.96
2018-02-13T04:11:38.013Z,-0.95
2018-02-13T04:14:05.545Z,-0.96
2018-02-13T04:16:33.120Z,-0.98
2018-02-13T04:19:00.687Z,-0.98
2018-02-13T04:21:28.239Z,-1.01
2018-02-13T04:23:55.781Z,-1.03
2018-02-13T04:26:23.438Z,-1.00
2018-02-13T04:28:50.973Z,-1.00
2018-02-13T04:31:18.506Z,-1.02
2018-02-13T04:33:46.072Z,-1.04
2018-02-13T04:36:13.586Z,-1.07
2018-02-13T04:38:41.119Z,-1.05
2018-02-13T04:41:08.656Z,-1.02
2018-02-13T04:43:36.188Z,-1.01
2018-02-13T04:46:03.712Z,-1.07
2018-02-13T04:48:31.256Z,-1.08
2018-02-13T04:50:58.765Z,-1.10
2018-02-13T04:53:26.304Z,-1.08
2018-02-13T04:55:53.976Z,-1.09
2018-02-13T04:58:21.504Z,-1.12
2018-02-13T05:00:49.095Z,-1.15
2018-02-13T05:03:16.647Z,-1.15
2018-02-13T05:05:44.162Z,-1.18
2018-02-13T05:08:11.681Z,-1.19
2018-02-13T05:10:39.254Z,-1.21
2018-02-13T05:13:06.966Z,-1.22
2018-02-13T05:15:34.497Z,-1.24
2018-02-13T05:18:02.161Z,-1.27
2018-02-13T05:20:29.760Z,-1.30
2018-02-13T05:22:57.336Z,-1.30
2018-02-13T05:25:24.873Z,-1.31
2018-02-13T05:27:52.429Z,-1.34
2018-02-13T05:30:19.937Z,-1.31
2018-02-13T05:32:47.449Z,-1.31
2018-02-13T05:35:15.003Z,-1.32
2018-02-13T05:37:42.538Z,-1.32
2018-02-13T05:40:10.049Z,-1.34
2018-02-13T05:42:37.582Z,-1.38
2018-02-13T05:45:05.121Z,-1.41
2018-02-13T05:47:32.657Z,-1.42
2018-02-13T05:50:00.208Z,-1.44
2018-02-13T05:52:27.721Z,-1.41
2018-02-13T05:54:55.266Z,-1.40
2018-02-13T05:57:22.777Z,-1.36
2018-02-13T05:59:50.289Z,-1.37
2018-02-13T06:02:17.842Z,-1.38
2018-02-13T06:04:45.353Z,-1.37
2018-02-13T06:07:12.859Z,-1.40
2018-02-13T06:09:40.411Z,-1.37
2018-02-13T06:12:07.929Z,-1.35
2018-02-13T06:14:35.490Z,-1.40
2018-02-13T06:17:03.026Z,-1.44
2018-02-13T06:19:30.534Z,-1.45
2018-02-13T06:21:58.050Z,-1.47
2018-02-13T06:24:25.561Z,-1.52
2018-02-13T06:26:53.159Z,-1.53
2018-02-13T06:29:20.677Z,-1.54
2018-02-13T06:31:48.532Z,-1.54
2018-02-13T06:34:16.079Z,-1.54
2018-02-13T06:36:43.609Z,-1.56
2018-02-13T06:39:11.113Z,-1.57
2018-02-13T06:41:38.633Z,-1.55
2018-02-13T06:44:06.165Z,-1.54
2018-02-13T06:46:33.735Z,-1.54
2018-02-13T06:49:01.303Z,-1.53
2018-02-13T06:51:28.825Z,-1.55
2018-02-13T06:53:56.380Z,-1.53
2018-02-13T06:56:23.909Z,-1.53
2018-02-13T06:58:51.454Z,-1.52
2018-02-13T07:01:19.086Z,-1.53
2018-02-13T07:03:46.729Z,-1.56
2018-02-13T07:06:14.288Z,-1.57
2018-02-13T07:08:41.793Z,-1.56
2018-02-13T07:11:09.320Z,-1.52
2018-02-13T07:13:36.859Z,-1.49
2018-02-13T07:16:04.365Z,-1.43
2018-02-13T07:18:31.985Z,-1.30
2018-02-13T07:20:59.525Z,-1.27
2018-02-13T07:23:27.076Z,-1.28
2018-02-13T07:25:54.620Z,-1.26
2018-02-13T07:28:22.200Z,-1.26
2018-02-13T07:30:49.734Z,-1.21
2018-02-13T07:33:17.243Z,-1.19
2018-02-13T07:35:44.823Z,-1.15
2018-02-13T07:38:12.330Z,-1.17
2018-02-13T07:40:39.853Z,-1.20
2018-02-13T07:43:07.407Z,-1.23
2018-02-13T07:45:34.918Z,-1.22
2018-02-13T07:48:02.430Z,-1.20
2018-02-13T07:50:29.952Z,-1.14
2018-02-13T07:52:57.493Z,-1.11
2018-02-13T07:55:25.086Z,-1.03
2018-02-13T07:57:52.601Z,-0.95
2018-02-13T08:00:20.130Z,-0.89
2018-02-13T08:02:47.660Z,-0.81
2018-02-13T08:05:15.192Z,-0.77
2018-02-13T08:07:42.780Z,-0.63
2018-02-13T08:10:10.309Z,-0.56
2018-02-13T08:12:37.827Z,-0.56
2018-02-13T08:15:05.559Z,-0.53
2018-02-13T08:17:33.076Z,-0.41
2018-02-13T08:20:00.680Z,-0.25
2018-02-13T08:22:28.319Z,-0.14
2018-02-13T08:24:55.882Z,-0.03
2018-02-13T08:27:23.424Z,0.03
2018-02-13T08:29:50.955Z,0.09
2018-02-13T08:32:18.485Z,0.15
2018-02-13T08:34:46.006Z,0.21
2018-02-13T08:37:13.537Z,0.21
2018-02-13T08:39:41.073Z,0.29
2018-02-13T08:42:08.694Z,0.38
2018-02-13T08:44:36.223Z,0.32
2018-02-13T08:47:03.728Z,0.37
2018-02-13T08:49:31.284Z,0.48
2018-02-13T08:51:59.005Z,0.62
2018-02-13T08:54:26.593Z,0.77
2018-02-13T08:56:54.149Z,0.93
2018-02-13T08:59:21.712Z,1.01
2018-02-13T09:01:49.241Z,1.05
2018-02-13T09:04:16.794Z,1.02
2018-02-13T09:06:44.384Z,1.06
2018-02-13T09:09:11.905Z,1.17
2018-02-13T09:11:39.413Z,1.29
2018-02-13T09:14:06.956Z,1.32
2018-02-13T09:16:34.494Z,1.50
2018-02-13T09:19:02.061Z,1.60
2018-02-13T09:21:29.664Z,1.62
2018-02-13T09:23:57.176Z,1.70
2018-02-13T09:26:24.720Z,1.66
2018-02-13T09:28:52.245Z,1.76
2018-02-13T09:31:19.780Z,1.83
2018-02-13T09:33:47.326Z,1.94
2018-02-13T09:36:14.866Z,2.09
2018-02-13T09:38:42.398Z,2.38
2018-02-13T09:41:09.939Z,2.59
2018-02-13T09:43:37.460Z,2.47
2018-02-13T09:46:04.991Z,2.46
2018-02-13T09:48:32.543Z,2.47
2018-02-13T09:51:00.089Z,2.50
2018-02-13T09:53:27.620Z,2.56
2018-02-13T09:55:55.125Z,2.54
2018-02-13T09:58:22.630Z,2.54
2018-02-13T10:00:50.155Z,2.60
2018-02-13T10:03:17.718Z,2.73
2018-02-13T10:05:45.415Z,2.88
2018-02-13T10:08:12.947Z,3.00
2018-02-13T10:10:40.462Z,3.04
2018-02-13T10:13:08.003Z,3.30
2018-02-13T10:15:35.545Z,3.73
2018-02-13T10:18:03.098Z,3.72
2018-02-13T10:20:30.730Z,3.31
2018-02-13T10:22:58.253Z,3.24
2018-02-13T10:25:25.782Z,3.18
2018-02-13T10:27:53.460Z,3.21
2018-02-13T10:30:20.981Z,3.28
2018-02-13T10:32:48.525Z,3.37
2018-02-13T10:35:16.115Z,3.35
2018-02-13T10:37:43.613Z,3.45
2018-02-13T10:40:11.142Z,3.54
2018-02-13T10:42:38.797Z,3.82
2018-02-13T10:45:06.381Z,4.04
2018-02-13T10:47:33.920Z,4.03
2018-02-13T10:50:01.450Z,4.43
2018-02-13T10:52:28.979Z,4.80
2018-02-13T10:54:56.516Z,4.75
2018-02-13T10:57:24.042Z,4.55
2018-02-13T10:59:51.610Z,4.36
2018-02-13T11:02:22.932Z,4.26
2018-02-13T11:04:50.469Z,4.25
2018-02-13T11:07:18.017Z,4.24
2018-02-13T11:09:45.550Z,4.26
2018-02-13T11:12:13.073Z,4.31
2018-02-13T11:14:40.769Z,4.40
2018-02-13T11:17:08.335Z,4.39
2018-02-13T11:19:35.853Z,4.32
2018-02-13T11:22:03.384Z,4.36
2018-02-13T11:24:30.914Z,4.45
2018-02-13T11:26:58.415Z,4.47
2018-02-13T11:29:25.940Z,4.45
2018-02-13T11:31:53.564Z,4.42
2018-02-13T11:34:21.076Z,4.49
2018-02-13T11:36:48.636Z,4.62
2018-02-13T11:39:16.192Z,4.72
2018-02-13T11:41:43.704Z,4.64
2018-02-13T11:44:11.252Z,4.61
2018-02-13T11:46:38.768Z,4.66
2018-02-13T11:49:06.338Z,4.78
2018-02-13T11:51:33.865Z,4.72
2018-02-13T11:54:01.398Z,4.94
2018-02-13T11:56:28.978Z,5.01
2018-02-13T11:58:56.507Z,5.02
2018-02-13T12:01:24.072Z,5.16
2018-02-13T12:03:51.630Z,5.20
2018-02-13T12:06:19.176Z,5.21
2018-02-13T12:08:46.725Z,5.20
2018-02-13T12:11:14.311Z,5.38
2018-02-13T12:13:41.862Z,5.54
2018-02-13T12:16:09.405Z,5.63
2018-02-13T12:18:36.943Z,5.73
2018-02-13T12:21:04.560Z,6.05
2018-02-13T12:23:32.088Z,6.18
2018-02-13T12:25:59.685Z,6.34
2018-02-13T12:28:27.256Z,6.21
2018-02-13T12:30:54.811Z,6.29
2018-02-13T12:33:22.452Z,6.15
2018-02-13T12:35:49.995Z,6.11
2018-02-13T12:38:17.581Z,6.17
2018-02-13T12:40:45.153Z,6.21
2018-02-13T12:43:12.683Z,6.38
2018-02-13T12:45:40.189Z,6.61
2018-02-13T12:48:07.968Z,6.15
2018-02-13T12:50:35.473Z,5.95
2018-02-13T12:53:03.025Z,5.95
2018-02-13T12:55:30.600Z,5.72
2018-02-13T12:57:58.118Z,5.68
2018-02-13T13:00:25.680Z,5.76
2018-02-13T13:02:53.213Z,5.85
2018-02-13T13:05:20.761Z,5.84
2018-02-13T13:07:48.408Z,5.91
2018-02-13T13:10:15.938Z,6.01
2018-02-13T13:12:43.517Z,5.85
2018-02-13T13:15:11.131Z,5.58
2018-02-13T13:17:38.659Z,5.35
2018-02-13T13:20:06.188Z,5.24
2018-02-13T13:22:33.757Z,5.17
2018-02-13T13:25:01.238Z,5.06
2018-02-13T13:27:28.809Z,4.96
2018-02-13T13:29:56.285Z,4.98
2018-02-13T13:32:23.773Z,4.98
2018-02-13T13:34:51.241Z,4.99
2018-02-13T13:37:18.726Z,4.98
2018-02-13T13:39:46.199Z,4.92
2018-02-13T13:42:13.758Z,4.93
2018-02-13T13:44:41.345Z,4.99
2018-02-13T13:47:08.798Z,5.09
2018-02-13T13:49:36.423Z,5.16
2018-02-13T13:52:03.942Z,5.17
2018-02-13T13:54:31.398Z,5.09
2018-02-13T13:56:58.958Z,5.05
2018-02-13T13:59:26.421Z,4.99
2018-02-13T14:01:53.877Z,4.94
2018-02-13T14:04:21.395Z,4.93
2018-02-13T14:06:48.849Z,4.80
2018-02-13T14:09:16.318Z,4.79
2018-02-13T14:11:43.782Z,4.75
2018-02-13T14:14:11.270Z,4.76
2018-02-13T14:16:38.734Z,4.88
2018-02-13T14:19:08.733Z,5.02
2018-02-13T14:21:36.256Z,5.21
2018-02-13T14:24:03.712Z,5.29
2018-02-13T14:26:31.165Z,5.39
2018-02-13T14:28:58.655Z,5.39
2018-02-13T14:31:26.113Z,5.33
2018-02-13T14:33:53.572Z,5.21
2018-02-13T14:36:21.043Z,5.28
2018-02-13T14:38:48.490Z,5.41
2018-02-13T14:41:15.978Z,5.37
2018-02-13T14:43:43.439Z,5.31
2018-02-13T14:46:10.895Z,5.25
2018-02-13T14:48:38.490Z,5.17
2018-02-13T14:51:06.046Z,5.08
2018-02-13T14:53:33.501Z,5.06
2018-02-13T14:56:01.058Z,5.07
2018-02-13T14:58:28.521Z,4.97
2018-02-13T15:00:55.977Z,4.93
2018-02-13T15:03:23.449Z,4.89
2018-02-13T15:05:50.942Z,4.86
2018-02-13T15:08:18.395Z,4.81
2018-02-13T15:10:45.851Z,4.76
2018-02-13T15:13:13.325Z,4.67
2018-02-13T15:15:40.856Z,4.62
2018-02-13T15:18:13.243Z,4.62
2018-02-13T15:20:40.746Z,4.61
2018-02-13T15:23:08.206Z,4.61
2018-02-13T15:25:35.670Z,4.60
2018-02-13T15:28:03.122Z,4.63
2018-02-13T15:30:30.598Z,4.65
2018-02-13T15:32:58.056Z,4.61
2018-02-13T15:35:25.519Z,4.59
2018-02-13T15:37:53.046Z,4.59
2018-02-13T15:40:20.601Z,4.58
2018-02-13T15:42:48.104Z,4.52
2018-02-13T15:45:15.598Z,4.39
2018-02-13T15:47:43.058Z,4.38
2018-02-13T15:50:10.514Z,4.35
2018-02-13T15:52:37.982Z,4.34
2018-02-13T15:55:05.602Z,4.35
2018-02-13T15:57:33.053Z,4.37
2018-02-13T16:00:00.526Z,4.35
2018-02-13T16:02:28.225Z,4.32
2018-02-13T16:04:55.693Z,4.29
2018-02-13T16:07:23.154Z,4.27
2018-02-13T16:09:50.652Z,4.22
2018-02-13T16:12:18.188Z,4.17
2018-02-13T16:14:45.650Z,4.09
2018-02-13T16:17:13.130Z,3.96
2018-02-13T16:19:40.581Z,3.85
2018-02-13T16:22:08.063Z,3.77
2018-02-13T16:24:35.521Z,3.63
2018-02-13T16:27:03.043Z,3.52
2018-02-13T16:29:30.504Z,3.47
2018-02-13T16:31:57.972Z,3.38
2018-02-13T16:34:25.520Z,3.30
2018-02-13T16:36:53.039Z,3.24
2018-02-13T16:39:20.511Z,3.14
2018-02-13T16:41:47.969Z,3.09
2018-02-13T16:44:15.502Z,3.03
2018-02-13T16:46:42.958Z,2.98
2018-02-13T16:49:10.415Z,2.95
2018-02-13T16:51:37.981Z,2.90
2018-02-13T16:54:05.436Z,2.86
2018-02-13T16:56:32.886Z,2.80
2018-02-13T16:59:00.461Z,2.75
2018-02-13T17:01:27.920Z,2.73
2018-02-13T17:03:55.374Z,2.69
2018-02-13T17:06:22.858Z,2.68
2018-02-13T17:08:50.491Z,2.67
2018-02-13T17:11:17.951Z,2.82
2018-02-13T17:13:45.449Z,2.82
2018-02-13T17:16:12.936Z,2.70
2018-02-13T17:18:41.346Z,2.62
2018-02-13T17:21:08.893Z,2.57
2018-02-13T17:23:36.378Z,2.49
2018-02-13T17:26:03.870Z,2.42
2018-02-13T17:28:31.380Z,2.37
2018-02-13T17:30:58.837Z,2.32
2018-02-13T17:33:26.321Z,2.28
2018-02-13T17:35:53.769Z,2.26
2018-02-13T17:38:21.231Z,2.24
2018-02-13T17:40:48.725Z,2.22
2018-02-13T17:43:16.183Z,2.20
2018-02-13T17:45:43.630Z,2.19
2018-02-13T17:48:11.097Z,2.18
2018-02-13T17:50:38.561Z,2.14
2018-02-13T17:53:06.025Z,2.15
2018-02-13T17:55:33.483Z,2.12
2018-02-13T17:58:00.941Z,2.08
2018-02-13T18:00:28.393Z,2.06
2018-02-13T18:02:55.863Z,2.04
2018-02-13T18:05:23.330Z,2.22
2018-02-13T18:07:51.138Z,2.47
2018-02-13T18:10:18.588Z,2.38
2018-02-13T18:12:46.042Z,2.28
2018-02-13T18:15:13.578Z,2.17
2018-02-13T18:17:41.032Z,2.09
2018-02-13T18:20:08.525Z,2.05
2018-02-13T18:22:36.047Z,2.00
2018-02-13T18:25:03.503Z,1.96
2018-02-13T18:27:31.000Z,1.93
2018-02-13T18:29:58.457Z,1.87
2018-02-13T18:32:26.025Z,1.81
2018-02-13T18:34:53.486Z,1.78
2018-02-13T18:37:20.988Z,1.76
2018-02-13T18:39:48.545Z,1.71
2018-02-13T18:42:16.025Z,1.66
2018-02-13T18:44:43.473Z,1.63
2018-02-13T18:47:10.959Z,1.59
2018-02-13T18:49:38.445Z,1.56
2018-02-13T18:52:05.943Z,1.56
2018-02-13T18:54:33.405Z,1.52
2018-02-13T18:57:00.884Z,1.48
2018-02-13T18:59:28.455Z,1.45
2018-02-13T19:01:56.110Z,1.42
2018-02-13T19:04:23.560Z,1.40
2018-02-13T19:06:51.009Z,1.35
2018-02-13T19:09:19.031Z,1.34
2018-02-13T19:11:47.627Z,1.30
2018-02-13T19:14:15.241Z,1.26
2018-02-13T19:19:10.318Z,1.20
2018-02-13T19:21:37.777Z,1.18
2018-02-13T19:24:05.356Z,1.15
2018-02-13T19:26:32.814Z,1.16
2018-02-13T19:29:00.310Z,1.12
2018-02-13T19:31:27.770Z,1.11
2018-02-13T19:33:55.243Z,1.10
2018-02-13T19:36:22.720Z,1.09
2018-02-13T19:38:50.276Z,1.09
2018-02-13T19:41:17.745Z,1.05
2018-02-13T19:43:45.210Z,1.02
2018-02-13T19:46:12.697Z,1.00
2018-02-13T19:48:40.163Z,0.97
2018-02-13T19:51:07.650Z,0.92
2018-02-13T19:53:35.142Z,0.91
2018-02-13T19:56:02.609Z,0.90
2018-02-13T19:58:30.106Z,0.84
2018-02-13T20:00:57.572Z,0.78
2018-02-13T20:03:25.048Z,0.72
2018-02-13T20:05:52.539Z,0.69
2018-02-13T20:08:20.005Z,0.65
2018-02-13T20:10:47.466Z,0.60
2018-02-13T20:13:15.886Z,0.58
2018-02-13T20:15:43.344Z,0.56
2018-02-13T20:18:10.801Z,0.55
2018-02-13T20:20:38.278Z,0.52
2018-02-13T20:23:05.753Z,0.50
2018-02-13T20:25:33.247Z,0.48
2018-02-13T20:28:00.708Z,0.45
2018-02-13T20:30:28.176Z,0.42
2018-02-13T20:32:55.647Z,0.39
2018-02-13T20:35:23.107Z,0.40
2018-02-13T20:37:50.598Z,0.37
2018-02-13T20:40:18.066Z,0.34
2018-02-13T20:42:45.547Z,0.31
2018-02-13T20:45:13.043Z,0.28
2018-02-13T20:47:40.518Z,0.28
2018-02-13T20:50:08.009Z,0.26
2018-02-13T20:52:35.602Z,0.23
2018-02-13T20:55:03.128Z,0.22
2018-02-13T20:57:30.642Z,0.21
2018-02-13T20:59:58.155Z,0.18
2018-02-13T21:02:25.615Z,0.18
2018-02-13T21:04:53.077Z,0.17
2018-02-13T21:07:20.557Z,0.19
2018-02-13T21:09:48.101Z,0.19
2018-02-13T21:12:15.558Z,0.16
2018-02-13T21:14:43.044Z,0.09
2018-02-13T21:17:10.549Z,0.06
2018-02-13T21:19:38.073Z,-0.01
2018-02-13T21:22:05.621Z,-0.05
2018-02-13T21:24:33.188Z,-0.15
2018-02-13T21:27:00.817Z,-0.18
2018-02-13T21:29:28.344Z,-0.27
2018-02-13T21:31:55.812Z,-0.34
2018-02-13T21:34:23.316Z,-0.40
2018-02-13T21:36:50.797Z,-0.44
2018-02-13T21:39:18.264Z,-0.45
2018-02-13T21:41:45.742Z,-0.43
2018-02-13T21:44:13.197Z,-0.39
2018-02-13T21:46:40.653Z,-0.41
2018-02-13T21:49:08.167Z,-0.43
2018-02-13T21:51:35.622Z,-0.49
2018-02-13T21:54:03.098Z,-0.52
2018-02-13T21:56:30.573Z,-0.58
2018-02-13T21:58:58.034Z,-0.60
2018-02-13T22:01:25.519Z,-0.61
2018-02-13T22:03:52.978Z,-0.61
2018-02-13T22:06:20.474Z,-0.63
2018-02-13T22:08:47.926Z,-0.63
2018-02-13T22:11:15.381Z,-0.63
2018-02-13T22:13:42.898Z,-0.63
2018-02-13T22:16:10.378Z,-0.66
2018-02-13T22:18:37.841Z,-0.71
2018-02-13T22:21:05.406Z,-0.75
2018-02-13T22:23:32.876Z,-0.75
2018-02-13T22:26:00.343Z,-0.78
2018-02-13T22:28:27.825Z,-0.81
2018-02-13T22:30:55.289Z,-0.83
2018-02-13T22:33:22.791Z,-0.80
2018-02-13T22:35:50.259Z,-0.78
2018-02-13T22:38:17.810Z,-0.77
2018-02-13T22:40:45.276Z,-0.74
2018-02-13T22:43:12.770Z,-0.77
2018-02-13T22:45:40.277Z,-0.80
2018-02-13T22:48:07.729Z,-0.84
2018-02-13T22:50:35.187Z,-0.89
2018-02-13T22:53:02.713Z,-0.93
2018-02-13T22:55:30.193Z,-1.00
2018-02-13T22:57:57.649Z,-1.04
2018-02-13T23:00:25.213Z,-0.76
2018-02-13T23:02:52.677Z,-0.85
2018-02-13T23:07:53.960Z,-1.03
2018-02-13T23:10:21.437Z,-1.07
2018-02-13T23:12:48.969Z,-1.12
2018-02-13T23:15:16.433Z,-1.16
2018-02-13T23:17:44.077Z,-1.24
2018-02-13T23:20:11.534Z,-1.24
2018-02-13T23:22:38.993Z,-1.25
2018-02-13T23:25:06.509Z,-1.25
2018-02-13T23:27:34.011Z,-1.25
2018-02-13T23:30:01.573Z,-1.26
2018-02-13T23:32:29.033Z,-1.29
2018-02-13T23:34:56.526Z,-1.28
2018-02-13T23:37:24.038Z,-1.31
2018-02-13T23:39:51.602Z,-1.33
2018-02-13T23:42:19.086Z,-1.25
2018-02-13T23:44:46.576Z,-1.31
2018-02-13T23:47:14.078Z,-1.35
2018-02-13T23:49:41.530Z,-1.38
2018-02-13T23:52:09.028Z,-1.42
2018-02-13T23:54:36.481Z,-1.46
2018-02-13T23:57:03.943Z,-1.44
2018-02-13T23:59:31.450Z,-1.43
